地図

経路データ

SID SEASON NUMBER BASIN SUBBASIN NAME ISO_TIME NATURE LAT LON WMO_WIND WMO_PRES WMO_AGENCY TRACK_TYPE DIST2LAND LANDFALL IFLAG USA_AGENCY USA_ATCF_ID USA_LAT USA_LON USA_RECORD USA_STATUS USA_WIND USA_PRES USA_SSHS USA_R34_NE USA_R34_SE USA_R34_SW USA_R34_NW USA_R50_NE USA_R50_SE USA_R50_SW USA_R50_NW USA_R64_NE USA_R64_SE USA_R64_SW USA_R64_NW USA_POCI USA_ROCI USA_RMW USA_EYE TOKYO_LAT TOKYO_LON TOKYO_GRADE TOKYO_WIND TOKYO_PRES TOKYO_R50_DIR TOKYO_R50_LONG TOKYO_R50_SHORT TOKYO_R30_DIR TOKYO_R30_LONG TOKYO_R30_SHORT TOKYO_LAND CMA_LAT CMA_LON CMA_CAT CMA_WIND CMA_PRES HKO_LAT HKO_LON HKO_CAT HKO_WIND HKO_PRES NEWDELHI_LAT NEWDELHI_LON NEWDELHI_GRADE NEWDELHI_WIND NEWDELHI_PRES NEWDELHI_CI NEWDELHI_DP NEWDELHI_POCI REUNION_LAT REUNION_LON REUNION_TYPE REUNION_WIND REUNION_PRES REUNION_TNUM REUNION_CI REUNION_RMW REUNION_R34_NE REUNION_R34_SE REUNION_R34_SW REUNION_R34_NW REUNION_R50_NE REUNION_R50_SE REUNION_R50_SW REUNION_R50_NW REUNION_R64_NE REUNION_R64_SE REUNION_R64_SW REUNION_R64_NW BOM_LAT BOM_LON BOM_TYPE BOM_WIND BOM_PRES BOM_TNUM BOM_CI BOM_RMW BOM_R34_NE BOM_R34_SE BOM_R34_SW BOM_R34_NW BOM_R50_NE BOM_R50_SE BOM_R50_SW BOM_R50_NW BOM_R64_NE BOM_R64_SE BOM_R64_SW BOM_R64_NW BOM_ROCI BOM_POCI BOM_EYE BOM_POS_METHOD BOM_PRES_METHOD NADI_LAT NADI_LON NADI_CAT NADI_WIND NADI_PRES WELLINGTON_LAT WELLINGTON_LON WELLINGTON_WIND WELLINGTON_PRES DS824_LAT DS824_LON DS824_STAGE DS824_WIND DS824_PRES TD9636_LAT TD9636_LON TD9636_STAGE TD9636_WIND TD9636_PRES TD9635_LAT TD9635_LON TD9635_WIND TD9635_PRES TD9635_ROCI NEUMANN_LAT NEUMANN_LON NEUMANN_CLASS NEUMANN_WIND NEUMANN_PRES MLC_LAT MLC_LON MLC_CLASS MLC_WIND MLC_PRES USA_GUST BOM_GUST BOM_GUST_PER REUNION_GUST REUNION_GUST_PER USA_SEAHGT USA_SEARAD_NE USA_SEARAD_SE USA_SEARAD_SW USA_SEARAD_NW STORM_SPEED STORM_DIR
1893316N12073 1893 62 NI AS NOT_NAMED 1893-11-12 00:00:00 TS 11.9000 73.0000 main 220 220 _________O____ -1 11.9000 73.0000 TC 30 2 285
1893316N12073 1893 62 NI AS NOT_NAMED 1893-11-12 03:00:00 TS 11.9250 72.9000 main 229 229 _________PO___ -1 11.9375 72.8500 TC 30 11.9000 73.0000 1 3 291
1893316N12073 1893 62 NI AS NOT_NAMED 1893-11-12 06:00:00 TS 11.9888 72.7613 main 235 235 _________OP___ -1 12.0000 72.7000 TC 30 11.9719 72.8532 1 3 299
1893316N12073 1893 62 NI AS NOT_NAMED 1893-11-12 09:00:00 TS 12.0764 72.6164 main 251 251 _________PP___ -1 12.1000 72.5500 TC 30 12.0450 72.7050 1 3 302
1893316N12073 1893 62 NI AS NOT_NAMED 1893-11-12 12:00:00 TS 12.1603 72.4772 main 258 258 _________OP___ -1 12.2000 72.4000 TC 30 12.1206 72.5544 1 3 298
1893316N12073 1893 62 NI AS NOT_NAMED 1893-11-12 15:00:00 TS 12.2250 72.3250 main 279 277 _________PO___ -1 12.2500 72.2500 TC 30 12.2000 72.4000 1 3 294
1893316N12073 1893 62 NI AS NOT_NAMED 1893-11-12 18:00:00 TS 12.2916 72.1709 main 287 287 _________OP___ -1 12.3000 72.1000 TC 30 12.2831 72.2419 1 3 298
1893316N12073 1893 62 NI AS NOT_NAMED 1893-11-12 21:00:00 TS 12.3863 72.0138 main 307 307 _________PP___ -1 12.4075 71.9425 TC 30 12.3650 72.0850 1 3 301
1893316N12073 1893 62 NI AS NOT_NAMED 1893-11-13 00:00:00 TS 12.4697 71.8678 main 316 316 _________OP___ -1 12.5000 71.8000 TC 30 12.4394 71.9357 1 3 294
1893316N12073 1893 62 NI AS NOT_NAMED 1893-11-13 03:00:00 TS 12.5037 71.7462 main 337 337 _________PO___ -1 12.5075 71.6925 TC 30 12.5000 71.8000 1 2 282
1893316N12073 1893 62 NI AS NOT_NAMED 1893-11-13 06:00:00 TS 12.5156 71.6448 main 347 347 _________OP___ -1 12.5000 71.6000 TC 30 12.5312 71.6896 1 2 283
1893316N12073 1893 62 NI AS NOT_NAMED 1893-11-13 09:00:00 TS 12.5462 71.5499 main 358 355 _________PP___ -1 12.5425 71.5075 TC 30 12.5499 71.5924 1 2 290
1893316N12073 1893 62 NI AS NOT_NAMED 1893-11-13 12:00:00 TS 12.5843 71.4495 main 366 366 _________OP___ -1 12.6000 71.4000 TC 30 12.5687 71.4990 1 2 289
1893316N12073 1893 62 NI AS NOT_NAMED 1893-11-13 15:00:00 TS 12.6213 71.3250 main 376 376 _________PO___ -1 12.6425 71.2500 TC 31 12.6000 71.4000 1 3 290
1893316N12073 1893 62 NI AS NOT_NAMED 1893-11-13 18:00:00 TS 12.6783 71.1931 main 385 385 _________OP___ -1 12.7000 71.1000 TC 32 12.6565 71.2862 1 3 300
1893316N12073 1893 62 NI AS NOT_NAMED 1893-11-13 21:00:00 TS 12.7600 71.0825 main 393 393 _________PP___ -1 12.7925 71.0000 TC 33 12.7275 71.1650 1 3 309
1893316N12073 1893 62 NI AS NOT_NAMED 1893-11-14 00:00:00 TS 12.8548 70.9681 main 396 396 _________OP___ -1 12.9000 70.9000 TC 34 12.8097 71.0362 1 3 308
1893316N12073 1893 62 NI AS NOT_NAMED 1893-11-14 03:00:00 TS 12.9500 70.8288 main 408 408 _________PO___ -1 13.0000 70.7575 TC 41 12.9000 70.9000 2 3 305
1893316N12073 1893 62 NI AS NOT_NAMED 1893-11-14 06:00:00 TS 13.0484 70.6806 main 417 411 _________OP___ -1 13.1000 70.6000 TC 49 12.9969 70.7613 2 4 305
1893316N12073 1893 62 NI AS NOT_NAMED 1893-11-14 09:00:00 TS 13.1500 70.5325 main 429 423 _________PP___ -1 13.2000 70.4500 TC 56 13.1000 70.6150 2 4 305
1893316N12073 1893 62 NI AS NOT_NAMED 1893-11-14 12:00:00 TS 13.2515 70.3806 main 427 427 _________OP___ -1 13.3000 70.3000 TC 64 13.2031 70.4613 2 4 304
1893316N12073 1893 62 NI AS NOT_NAMED 1893-11-14 15:00:00 TS 13.3537 70.2287 main 442 442 _________PO___ -1 13.4075 70.1575 TC 64 13.3000 70.3000 4 3 302
1893316N12073 1893 62 NI AS NOT_NAMED 1893-11-14 18:00:00 TS 13.4349 70.0762 main 451 451 _________OP___ -1 13.5000 70.0000 TC 64 13.3699 70.1523 4 3 293
1893316N12073 1893 62 NI AS NOT_NAMED 1893-11-14 21:00:00 TS 13.4886 69.9086 main 466 466 _________PP___ -1 13.5425 69.8224 TC 64 13.4348 69.9947 4 4 288
1893316N12073 1893 62 NI AS NOT_NAMED 1893-11-15 00:00:00 TS 13.5537 69.7074 main 482 482 _________OP___ -1 13.6000 69.6000 TC 64 13.5073 69.8148 4 5 292
1893316N12073 1893 62 NI AS NOT_NAMED 1893-11-15 03:00:00 TS 13.6675 69.4575 main 499 499 _________PO___ -1 13.7350 69.3150 TC 64 13.6000 69.6000 4 6 296
1893316N12073 1893 62 NI AS NOT_NAMED 1893-11-15 06:00:00 TS 13.8102 69.1720 main 524 524 _________OP___ -1 13.9000 69.0000 TC 64 13.7203 69.3440 4 6 297
1893316N12073 1893 62 NI AS NOT_NAMED 1893-11-15 09:00:00 TS 13.9525 68.8799 main 546 546 _________PP___ -1 14.0424 68.7074 TC 64 13.8625 69.0524 4 7 297
1893316N12073 1893 62 NI AS NOT_NAMED 1893-11-15 12:00:00 TS 14.1117 68.5673 main 571 571 _________OP___ -1 14.2000 68.4000 TC 64 14.0234 68.7346 4 7 299
1893316N12073 1893 62 NI AS NOT_NAMED 1893-11-15 15:00:00 TS 14.2962 68.2287 main 599 599 _________PO___ -1 14.3925 68.0575 TC 64 14.2000 68.4000 4 8 300
1893316N12073 1893 62 NI AS NOT_NAMED 1893-11-15 18:00:00 TS 14.4969 67.8762 main 620 620 _________OP___ -1 14.6000 67.7000 TC 64 14.3938 68.0523 4 8 301
1893316N12073 1893 62 NI AS NOT_NAMED 1893-11-15 21:00:00 TS 14.7038 67.5176 main 653 653 _________PP___ -1 14.8075 67.3425 TC 64 14.6001 67.6927 4 8 301
1893316N12073 1893 62 NI AS NOT_NAMED 1893-11-16 00:00:00 TS 14.9032 67.1684 main 677 677 _________OP___ -1 15.0000 67.0000 TC 64 14.8063 67.3367 4 8 300
1893316N12073 1893 62 NI AS NOT_NAMED 1893-11-16 03:00:00 TS 15.0787 66.8425 main 713 713 _________PO___ -1 15.1575 66.6849 TC 64 15.0000 67.0000 4 7 299
1893316N12073 1893 62 NI AS NOT_NAMED 1893-11-16 06:00:00 TS 15.2301 66.5475 main 741 739 _________OP___ -1 15.3000 66.4000 TC 64 15.1601 66.6950 4 6 299
1893316N12073 1893 62 NI AS NOT_NAMED 1893-11-16 09:00:00 TS 15.3786 66.2773 main 758 758 _________PP___ -1 15.4499 66.1424 TC 64 15.3073 66.4121 4 6 300
1893316N12073 1893 62 NI AS NOT_NAMED 1893-11-16 12:00:00 TS 15.5254 66.0241 main 767 758 _________OP___ -1 15.6000 65.9000 TC 64 15.4508 66.1482 4 6 301
1893316N12073 1893 62 NI AS NOT_NAMED 1893-11-16 15:00:00 TS 15.6712 65.7712 main 761 761 _________PO___ -1 15.7425 65.6425 TC 64 15.6000 65.9000 4 6 303
1893316N12073 1893 62 NI AS NOT_NAMED 1893-11-16 18:00:00 TS 15.8400 65.5141 main 772 762 _________OP___ -1 15.9000 65.4000 TC 64 15.7800 65.6283 4 6 307
1893316N12073 1893 62 NI AS NOT_NAMED 1893-11-16 21:00:00 TS 16.0363 65.2726 main 769 767 _________PP___ -1 16.1075 65.1701 TC 64 15.9651 65.3752 4 6 312
1893316N12073 1893 62 NI AS NOT_NAMED 1893-11-17 00:00:00 TS 16.2213 65.0798 main 767 758 _________OP___ -1 16.3000 65.0000 TC 64 16.1425 65.1595 4 4 317
1893316N12073 1893 62 NI AS NOT_NAMED 1893-11-17 03:00:00 TS 16.3575 64.9600 main 758 758 _________PO___ -1 16.4150 64.9199 TC 64 16.3000 65.0000 4 3 325
1893316N12073 1893 62 NI AS NOT_NAMED 1893-11-17 06:00:00 TS 16.4607 64.9086 main 758 750 _________OP___ -1 16.5000 64.9000 TC 64 16.4214 64.9173 4 2 343
1893316N12073 1893 62 NI AS NOT_NAMED 1893-11-17 09:00:00 TS 16.5612 64.8948 main 750 743 _________PP___ -1 16.6000 64.9000 TC 64 16.5223 64.8897 4 2 0
1893316N12073 1893 62 NI AS NOT_NAMED 1893-11-17 12:00:00 TS 16.6560 64.8962 main 743 743 _________OP___ -1 16.7000 64.9000 TC 64 16.6121 64.8923 4 2 354
1893316N12073 1893 62 NI AS NOT_NAMED 1893-11-17 15:00:00 TS 16.7500 64.8750 main 735 735 _________PO___ -1 16.8000 64.8500 TC 64 16.7000 64.9000 4 2 340
1893316N12073 1893 62 NI AS NOT_NAMED 1893-11-17 18:00:00 TS 16.8378 64.8214 main 742 734 _________OP___ -1 16.9000 64.8000 TC 64 16.7756 64.8427 4 2 331
1893316N12073 1893 62 NI AS NOT_NAMED 1893-11-17 21:00:00 TS 16.9125 64.7840 main 734 727 _________PP___ -1 16.9700 64.7776 TC 64 16.8549 64.7904 4 2 350
1893316N12073 1893 62 NI AS NOT_NAMED 1893-11-18 00:00:00 TS 17.0284 64.7839 main 727 711 _________OP___ -1 17.1000 64.8000 TC 64 16.9568 64.7678 4 3 8
1893316N12073 1893 62 NI AS NOT_NAMED 1893-11-18 03:00:00 TS 17.2425 64.8313 main 711 680 _________PO___ -1 17.3850 64.8625 TC 64 17.1000 64.8000 4 5 18
1893316N12073 1893 62 NI AS NOT_NAMED 1893-11-18 06:00:00 TS 17.5115 64.9505 main 672 649 _________OP___ -1 17.7000 65.0000 TC 64 17.3231 64.9010 4 6 30
1893316N12073 1893 62 NI AS NOT_NAMED 1893-11-18 09:00:00 TS 17.7537 65.1436 main 640 603 _________PP___ -1 17.9225 65.2275 TC 64 17.5849 65.0597 4 6 41
1893316N12073 1893 62 NI AS NOT_NAMED 1893-11-18 12:00:00 TS 17.9772 65.3818 main 603 572 _________OP___ -1 18.1000 65.5000 TC 64 17.8543 65.2635 4 6 47
1893316N12073 1893 62 NI AS NOT_NAMED 1893-11-18 15:00:00 TS 18.1787 65.6213 main 572 549 _________PO___ -1 18.2574 65.7426 TC 64 18.1000 65.5000 4 6 52
1893316N12073 1893 62 NI AS NOT_NAMED 1893-11-18 18:00:00 TS 18.3291 65.8613 main 542 511 _________OP___ -1 18.4000 66.0000 TC 64 18.2582 65.7225 4 6 60
1893316N12073 1893 62 NI AS NOT_NAMED 1893-11-18 21:00:00 TS 18.4598 66.1269 main 511 480 _________PP___ -1 18.5274 66.2777 TC 64 18.3921 65.9760 4 6 62
1893316N12073 1893 62 NI AS NOT_NAMED 1893-11-19 00:00:00 TS 18.6150 66.4332 main 480 434 _________OP___ -1 18.7000 66.6000 TC 64 18.5300 66.2665 4 7 59
1893316N12073 1893 62 NI AS NOT_NAMED 1893-11-19 03:00:00 TS 18.8425 66.7887 main 434 381 _________PO___ -1 18.9850 66.9774 TC 64 18.7000 66.6000 4 9 54
1893316N12073 1893 62 NI AS NOT_NAMED 1893-11-19 06:00:00 TS 19.1236 67.1867 main 381 327 _________OP___ -1 19.3000 67.4000 TC 64 18.9472 66.9735 4 10 55
1893316N12073 1893 62 NI AS NOT_NAMED 1893-11-19 09:00:00 TS 19.3924 67.6162 main 327 282 _________PP___ -1 19.5574 67.8427 TC 64 19.2274 67.3897 4 10 57
1893316N12073 1893 62 NI AS NOT_NAMED 1893-11-19 12:00:00 TS 19.6595 68.0680 main 266 221 _________OP___ -1 19.8000 68.3000 TC 64 19.5190 67.8361 4 10 58
1893316N12073 1893 62 NI AS NOT_NAMED 1893-11-19 15:00:00 TS 19.9287 68.5213 main 221 175 _________PO___ -1 20.0573 68.7426 TC 55 19.8000 68.3000 4 10 59
1893316N12073 1893 62 NI AS NOT_NAMED 1893-11-19 18:00:00 TS 20.1593 68.9545 main 159 114 _________OP___ -1 20.3000 69.2000 TC 47 20.0539 68.7704 4 10 62
1893316N12073 1893 62 NI AS NOT_NAMED 1893-11-19 21:00:00 TS 20.3742 69.4226 main 114 64 _________PP___ -1 20.5103 69.6898 TC 38 20.2834 69.2444 4 10 65
1893316N12073 1893 62 NI AS NOT_NAMED 1893-11-20 00:00:00 TS 20.5641 69.8808 main 64 38 _________OP___ -1 20.7000 70.2000 TC 30 20.4962 69.7212 4 8 66
1893316N12073 1893 62 NI AS NOT_NAMED 1893-11-20 03:00:00 NR 20.7000 70.2000 main 38 __________O___ -1 TC 20.7000 70.2000 1 7 66

IBTrACS Databaseについて

本データベースは、米国NOAAが公開する1842年以降の世界の熱帯低気圧のベストトラックデータアーカイブInternational Best Track Archive for Climate Stewardship (IBTrACS)を、ウェブで閲覧しやすい形式に変換したものです。

最終更新日:2021-10-21